Time;durP1;ratioP1;P1;durP2;ratioP2;P2;SDS_P1;SDS_P2;PMS_P1;PMS_P2;Temp;Humidity;BMP_temperature;BMP_pressure;BME280_temperature;BME280_humidity;BME280_pressure;Samples;Min_cycle;Max_cycle;Signal;HPM_P1;HPM_P2
2022/10/09 00:00:35;;;;;;;7.22;4.32;;;8.20;99.90;;;7.49;100.00;98028.34;4995166;28;20091;-51
2022/10/09 00:03:01;;;;;;;7.80;4.40;;;8.20;99.90;;;7.64;100.00;98063.13;5002373;28;20482;-48
2022/10/09 00:05:27;;;;;;;6.85;4.38;;;8.20;99.90;;;7.60;100.00;98060.56;4999704;28;20032;-49
2022/10/09 00:07:54;;;;;;;10.38;4.95;;;8.10;99.90;;;7.59;100.00;98067.56;4986665;28;22163;-52
2022/10/09 00:10:20;;;;;;;8.48;4.88;;;8.10;99.90;;;7.56;100.00;98064.13;5000382;28;20041;-52
2022/10/09 00:12:46;;;;;;;12.75;5.07;;;8.10;99.90;;;7.57;100.00;98055.34;4994335;28;20037;-52
2022/10/09 00:15:12;;;;;;;8.88;5.10;;;8.10;99.90;;;7.56;100.00;98053.63;4991596;28;20037;-51
2022/10/09 00:17:38;;;;;;;11.70;5.40;;;8.10;99.90;;;7.56;100.00;98057.09;4983346;28;20693;-52
2022/10/09 00:20:05;;;;;;;6.80;4.70;;;8.10;99.90;;;7.54;100.00;98060.66;4983487;28;20165;-49
2022/10/09 00:22:31;;;;;;;9.30;5.30;;;8.10;99.90;;;7.53;100.00;98056.28;4980035;28;20522;-52
2022/10/09 00:24:56;;;;;;;7.78;4.18;;;8.00;99.90;;;7.51;100.00;98055.44;4991115;28;20075;-50
2022/10/09 00:27:22;;;;;;;7.47;4.80;;;8.00;99.90;;;7.49;100.00;98051.97;4983523;28;20746;-49
2022/10/09 00:29:49;;;;;;;10.18;4.90;;;8.00;99.90;;;7.41;100.00;98042.44;4977257;28;20352;-48
2022/10/09 00:32:15;;;;;;;7.05;4.78;;;8.00;99.90;;;7.44;100.00;98052.88;4981229;28;20505;-49
2022/10/09 00:34:40;;;;;;;7.75;4.93;;;7.90;99.90;;;7.40;100.00;98048.56;4984963;28;20053;-47
2022/10/09 00:37:06;;;;;;;8.60;5.10;;;7.90;99.90;;;7.37;100.00;98055.63;4962167;28;20025;-48
2022/10/09 00:39:32;;;;;;;8.63;4.93;;;7.90;99.90;;;7.34;100.00;98050.41;4964231;28;20190;-51
2022/10/09 00:41:57;;;;;;;6.55;4.28;;;7.90;99.90;;;7.29;100.00;98044.38;4981556;28;20124;-51
2022/10/09 00:44:58;;;;;;;7.85;4.70;;;7.80;99.90;;;7.22;100.00;98038.34;4982030;28;20046;-48
2022/10/09 00:47:37;;;;;;;7.05;4.30;;;7.80;99.90;;;7.22;100.00;98041.81;4968072;28;20474;-49
2022/10/09 00:50:40;;;;;;;7.97;4.50;;;7.70;99.90;;;7.19;100.00;98046.25;4971125;28;20072;-48
2022/10/09 00:53:06;;;;;;;;;;;7.70;99.90;;;7.18;100.00;98032.25;4955494;28;20048;-51
2022/10/09 00:55:34;;;;;;;8.90;4.85;;;7.70;99.90;;;7.18;100.00;98039.28;4991764;28;19928;-50
2022/10/09 00:58:01;;;;;;;10.25;4.78;;;7.70;99.90;;;7.14;100.00;98032.31;4988143;28;20042;-49
2022/10/09 01:00:27;;;;;;;7.80;5.05;;;7.70;99.90;;;7.14;100.00;98030.56;4994283;28;21583;-49
2022/10/09 01:02:53;;;;;;;10.85;5.00;;;7.70;99.90;;;7.13;100.00;98023.59;5006905;28;20040;-47
2022/10/09 01:05:53;;;;;;;8.07;4.93;;;7.70;99.90;;;7.14;100.00;98033.19;5011190;28;20060;-48
2022/10/09 01:08:40;;;;;;;11.00;5.65;;;7.70;99.90;;;7.11;100.00;98024.50;4992015;28;20196;-51
2022/10/09 01:11:26;;;;;;;13.75;5.47;;;7.70;99.90;;;7.14;100.00;98034.94;4990826;28;20674;-50
2022/10/09 01:14:06;;;;;;;9.88;5.20;;;7.60;99.90;;;7.12;100.00;98029.69;4979022;28;23566;-49
2022/10/09 01:16:49;;;;;;;9.95;5.38;;;7.70;99.90;;;7.02;100.00;98008.00;4948223;28;20018;-50
2022/10/09 01:20:36;;;;;;;13.52;5.63;;;7.60;99.90;;;7.07;100.00;98021.06;4971399;28;20029;-51
2022/10/09 01:23:23;;;;;;;7.97;5.00;;;7.60;99.90;;;7.03;100.00;98022.84;4877677;29;20247;-51
2022/10/09 01:26:15;;;;;;;8.00;4.88;;;7.60;99.90;;;7.01;100.00;98015.88;4890487;29;20040;-51
2022/10/09 01:28:51;;;;;;;9.47;5.37;;;7.60;99.90;;;6.99;100.00;98021.13;4976737;28;21304;-52
2022/10/09 01:31:19;;;;;;;10.52;5.50;;;7.50;99.90;;;6.96;100.00;98015.91;5006587;28;20029;-49
2022/10/09 01:33:45;;;;;;;10.95;5.50;;;7.50;99.90;;;6.91;100.00;98014.25;4973032;28;20036;-48
2022/10/09 01:36:13;;;;;;;11.43;5.53;;;7.50;99.90;;;6.90;100.00;98015.16;4969872;28;20029;-48
2022/10/09 01:38:41;;;;;;;8.98;5.63;;;7.50;99.90;;;6.87;100.00;98008.16;4988996;28;20037;-48
2022/10/09 01:41:08;;;;;;;10.25;5.38;;;7.40;99.90;;;6.75;100.00;98000.44;4980036;28;20593;-51
2022/10/09 01:43:34;;;;;;;10.30;5.30;;;7.40;99.90;;;6.80;100.00;98009.13;5004671;28;20100;-50
2022/10/09 01:46:31;;;;;;;6.60;4.15;;;7.30;99.90;;;6.77;100.00;98009.19;4994423;28;20038;-51
2022/10/09 01:49:38;;;;;;;7.43;4.90;;;7.30;99.90;;;6.71;100.00;98004.84;4975309;28;20788;-48
2022/10/09 01:52:34;;;;;;;8.73;4.85;;;7.30;99.90;;;6.66;100.00;97994.44;4984683;28;20468;-49
2022/10/09 01:55:05;;;;;;;7.13;4.70;;;7.20;99.90;;;6.60;100.00;97991.03;4982581;28;20040;-51
2022/10/09 01:57:47;;;;;;;10.45;4.47;;;7.20;99.90;;;6.56;100.00;97984.94;4991079;28;20033;-50
2022/10/09 02:00:13;;;;;;;6.03;4.32;;;7.20;99.90;;;6.45;100.00;97982.44;4980937;28;20041;-49
2022/10/09 02:02:41;;;;;;;7.70;4.32;;;7.10;99.90;;;6.47;100.00;97974.56;4986370;28;20044;-51
2022/10/09 02:05:16;;;;;;;8.18;5.07;;;7.00;99.90;;;6.48;100.00;97978.94;4967259;28;20042;-50
2022/10/09 02:07:42;;;;;;;8.40;4.95;;;7.00;99.90;;;6.47;100.00;97980.66;4989005;28;20107;-51
2022/10/09 02:10:09;;;;;;;8.05;5.57;;;7.00;99.90;;;6.44;100.00;97977.22;5002644;28;20388;-51
2022/10/09 02:12:43;;;;;;;10.27;4.97;;;7.00;99.90;;;6.44;100.00;97977.22;4982197;28;20046;-51
2022/10/09 02:15:09;;;;;;;8.35;5.28;;;7.00;99.90;;;6.44;100.00;97971.97;4982727;28;20674;-52
2022/10/09 02:17:43;;;;;;;10.35;4.90;;;7.00;99.90;;;6.46;100.00;97968.47;5020270;28;20044;-50
2022/10/09 02:20:22;;;;;;;8.60;5.28;;;7.00;99.90;;;6.44;100.00;97964.13;4989832;28;20029;-49
2022/10/09 02:22:48;;;;;;;8.93;4.78;;;7.00;99.90;;;6.43;100.00;97965.03;4987972;28;20033;-52
2022/10/09 02:25:15;;;;;;;10.05;5.30;;;7.00;99.90;;;6.42;100.00;97966.75;5000281;28;20067;-49
2022/10/09 02:27:41;;;;;;;8.40;5.25;;;7.00;99.90;;;6.37;100.00;97958.09;4986107;28;20441;-49
2022/10/09 02:30:09;;;;;;;9.43;4.55;;;7.00;99.90;;;6.37;100.00;97957.22;5002862;28;20060;-52
2022/10/09 02:32:35;;;;;;;8.63;5.30;;;7.00;99.90;;;6.42;100.00;97955.41;4978871;28;20112;-52
2022/10/09 02:35:01;;;;;;;9.32;5.18;;;7.00;99.90;;;6.43;100.00;97958.03;4984261;28;20056;-50
2022/10/09 02:37:27;;;;;;;9.13;4.93;;;7.00;99.90;;;6.42;100.00;97952.78;4972966;28;20382;-49
2022/10/09 02:39:52;;;;;;;9.90;4.80;;;7.00;99.90;;;6.38;100.00;97953.72;4988155;28;20529;-50
2022/10/09 02:42:18;;;;;;;8.40;4.90;;;7.00;99.90;;;6.39;100.00;97950.19;4987992;28;20087;-51
2022/10/09 02:44:44;;;;;;;7.50;4.57;;;7.00;99.90;;;6.33;100.00;97948.53;4987381;28;20029;-52
2022/10/09 02:47:10;;;;;;;8.98;4.30;;;6.90;99.90;;;6.28;100.00;97943.34;4988653;28;20498;-52
2022/10/09 02:49:36;;;;;;;6.55;4.78;;;6.90;99.90;;;6.33;100.00;97945.91;4990738;28;20096;-51
2022/10/09 02:52:02;;;;;;;7.22;4.85;;;6.90;99.90;;;6.31;100.00;97948.53;4990541;28;20328;-49
2022/10/09 02:54:28;;;;;;;9.65;5.10;;;6.90;99.90;;;6.30;100.00;97953.81;4990043;28;21548;-51
2022/10/09 02:56:53;;;;;;;7.68;4.18;;;6.90;99.90;;;6.31;100.00;97947.69;4980075;28;20033;-48
2022/10/09 02:59:19;;;;;;;8.23;4.68;;;6.90;99.90;;;6.28;100.00;97943.34;4995396;28;20075;-48
2022/10/09 03:01:45;;;;;;;8.30;4.30;;;6.90;99.90;;;6.28;100.00;97952.94;4988975;28;20041;-49
2022/10/09 03:04:10;;;;;;;10.27;5.13;;;6.80;99.90;;;6.26;100.00;97947.75;4992449;28;20738;-49
2022/10/09 03:06:36;;;;;;;9.55;5.07;;;6.90;99.90;;;6.20;100.00;97942.56;4982798;28;20053;-51
2022/10/09 03:09:02;;;;;;;6.60;4.47;;;6.80;99.90;;;6.25;100.00;97943.38;4987444;28;20045;-49
2022/10/09 03:11:28;;;;;;;7.65;4.80;;;6.80;99.90;;;6.25;100.00;97942.53;4961968;28;20466;-55
2022/10/09 03:13:54;;;;;;;6.75;4.53;;;6.80;99.90;;;6.25;100.00;97943.38;4985178;28;20243;-53
2022/10/09 03:16:23;;;;;;;7.72;4.70;;;6.80;99.90;;;6.23;100.00;97941.66;4978004;28;20646;-48
2022/10/09 03:18:50;;;;;;;7.07;4.68;;;6.80;99.90;;;6.23;100.00;97944.28;4966229;28;20033;-53
2022/10/09 03:21:21;;;;;;;8.90;4.68;;;6.80;99.90;;;6.22;100.00;97939.91;4996374;23;20050;-52
2022/10/09 03:23:47;;;;;;;10.35;4.43;;;6.80;99.90;;;6.20;100.00;97933.84;4981866;28;20355;-52
2022/10/09 03:26:16;;;;;;;13.93;5.28;;;6.80;99.90;;;6.20;100.00;97934.69;5005623;28;20053;-49
2022/10/09 03:28:48;;;;;;;9.80;4.47;;;6.80;99.90;;;6.17;100.00;97942.56;5004438;28;20513;-51
2022/10/09 03:31:16;;;;;;;7.95;4.80;;;6.80;99.90;;;6.15;100.00;97939.13;4998244;28;20445;-50
2022/10/09 03:33:41;;;;;;;11.88;4.55;;;6.70;99.90;;;6.09;100.00;97945.28;4998784;28;20116;-53
2022/10/09 03:36:08;;;;;;;9.07;4.80;;;6.70;99.90;;;6.08;100.00;97946.19;5002167;28;20047;-50
2022/10/09 03:38:34;;;;;;;9.23;5.00;;;6.70;99.90;;;6.04;100.00;97943.59;4999058;28;20069;-52
2022/10/09 03:41:03;;;;;;;9.98;4.25;;;6.70;99.90;;;6.00;100.00;97934.91;5007267;28;20132;-52
2022/10/09 03:43:29;;;;;;;9.25;5.57;;;6.60;99.90;;;6.01;100.00;97935.78;5003517;28;20539;-51
2022/10/09 03:45:56;;;;;;;9.70;4.78;;;6.60;99.90;;;6.04;100.00;97948.84;5001181;28;20038;-49
2022/10/09 03:48:21;;;;;;;10.00;4.95;;;6.60;99.90;;;5.99;100.00;97938.41;4993749;28;20542;-49
2022/10/09 03:50:47;;;;;;;7.15;5.05;;;6.60;99.90;;;5.97;100.00;97942.78;5002206;28;20029;-49
2022/10/09 03:53:14;;;;;;;6.60;4.38;;;6.60;99.90;;;5.97;100.00;97940.16;5005203;28;20022;-49
2022/10/09 03:55:41;;;;;;;6.90;4.43;;;6.50;99.90;;;5.95;100.00;97939.28;4997931;28;20088;-49
2022/10/09 03:58:07;;;;;;;7.25;4.63;;;6.50;99.90;;;5.93;100.00;97939.31;5004913;28;20033;-51
2022/10/09 04:00:34;;;;;;;7.07;4.72;;;6.50;99.90;;;5.91;100.00;97945.44;5000996;28;20789;-52
2022/10/09 04:02:59;;;;;;;9.15;5.30;;;6.50;99.90;;;5.88;100.00;97938.47;5009001;28;20065;-49
2022/10/09 04:05:25;;;;;;;9.50;4.85;;;6.50;99.90;;;5.88;100.00;97943.72;5003108;28;20203;-50
2022/10/09 04:07:51;;;;;;;8.13;5.10;;;6.50;99.90;;;5.84;100.00;97935.91;5003690;28;20614;-52
2022/10/09 04:10:16;;;;;;;8.85;4.82;;;6.50;99.90;;;5.87;100.00;97936.75;5001368;28;20033;-49
2022/10/09 04:12:42;;;;;;;7.22;4.47;;;6.50;99.90;;;5.87;100.00;97946.38;5004893;28;20540;-52
2022/10/09 04:15:08;;;;;;;7.40;4.75;;;6.50;99.90;;;5.85;100.00;97941.16;5008767;28;20040;-50
2022/10/09 04:17:34;;;;;;;7.97;4.80;;;6.50;99.90;;;5.85;100.00;97945.47;5002061;28;20061;-53
2022/10/09 04:20:00;;;;;;;9.63;4.97;;;6.40;99.90;;;5.81;100.00;97949.03;4998683;28;20160;-49
2022/10/09 04:22:27;;;;;;;7.85;4.60;;;6.40;99.90;;;5.79;100.00;97938.56;5005978;28;20901;-49
2022/10/09 04:24:52;;;;;;;7.22;4.65;;;6.40;99.90;;;5.79;100.00;97938.56;5003139;28;20164;-49
2022/10/09 04:27:18;;;;;;;9.02;5.05;;;6.40;99.90;;;5.78;100.00;97933.34;5006294;28;20030;-50
2022/10/09 04:29:44;;;;;;;13.15;5.35;;;6.40;99.90;;;5.74;100.00;97932.50;4999334;28;20502;-49
2022/10/09 04:32:10;;;;;;;9.98;4.95;;;6.40;99.90;;;5.75;100.00;97944.72;5005222;28;20046;-50
2022/10/09 04:34:35;;;;;;;9.98;4.57;;;6.30;99.90;;;5.69;100.00;97934.31;5001180;28;20650;-49
2022/10/09 04:37:01;;;;;;;6.03;4.22;;;6.30;99.90;;;5.53;100.00;97905.66;5008150;28;20033;-51
2022/10/09 04:39:27;;;;;;;5.55;4.22;;;6.30;99.90;;;5.69;100.00;97940.41;5004375;28;20188;-52
2022/10/09 04:41:52;;;;;;;12.32;4.25;;;6.30;99.90;;;5.67;100.00;97933.44;5001683;28;22282;-45
2022/10/09 04:44:18;;;;;;;6.53;4.25;;;6.30;99.90;;;5.65;100.00;97936.09;5001031;28;20044;-44
2022/10/09 04:46:44;;;;;;;5.95;4.00;;;6.30;99.90;;;5.61;100.00;97934.38;5001022;28;20033;-45
2022/10/09 04:49:13;;;;;;;6.30;4.13;;;6.20;99.90;;;5.57;100.00;97926.56;5001143;28;20351;-44
2022/10/09 04:51:40;;;;;;;11.23;5.30;;;6.20;99.90;;;5.57;100.00;97937.03;4996486;28;20033;-44
2022/10/09 04:54:06;;;;;;;9.98;4.50;;;6.20;99.90;;;5.56;100.00;97938.75;5007094;28;20052;-44
2022/10/09 04:56:32;;;;;;;12.82;5.40;;;6.20;99.90;;;5.49;100.00;97924.88;5006366;28;20083;-44
2022/10/09 04:58:58;;;;;;;9.25;4.65;;;6.20;99.90;;;5.53;100.00;97931.81;5002958;28;20433;-45
2022/10/09 05:01:26;;;;;;;7.43;4.90;;;6.10;99.90;;;5.51;100.00;97930.97;4997013;28;20036;-47
2022/10/09 05:03:52;;;;;;;6.90;3.80;;;6.10;99.90;;;5.46;100.00;97919.66;4997713;28;20041;-47
2022/10/09 05:06:20;;;;;;;7.60;4.55;;;6.10;99.90;;;5.47;100.00;97918.81;5007953;28;20034;-47
2022/10/09 05:08:47;;;;;;;8.68;4.55;;;6.10;99.90;;;5.49;100.00;97930.13;4999694;28;20402;-46
2022/10/09 05:11:24;;;;;;;8.13;4.82;;;6.10;99.90;;;5.41;100.00;97916.22;4998752;28;20293;-43
2022/10/09 05:13:56;;;;;;;8.38;4.50;;;6.10;99.90;;;5.44;100.00;97925.81;5006627;28;20075;-44
2022/10/09 05:16:24;;;;;;;;;;;6.10;99.90;;;5.38;100.00;97929.31;5007281;28;20065;-46
2022/10/09 05:18:56;;;;;;;7.93;3.28;;;6.00;99.90;;;5.37;100.00;97934.59;5004865;28;19940;-46
2022/10/09 05:21:23;;;;;;;6.77;4.03;;;6.00;99.90;;;5.28;100.00;97914.59;4999775;28;20025;-44
2022/10/09 05:23:49;;;;;;;8.13;4.55;;;6.00;99.90;;;5.30;100.00;97926.75;5001653;28;20025;-45
2022/10/09 05:26:18;;;;;;;5.72;4.00;;;5.90;99.90;;;5.29;100.00;97921.53;5006166;28;20398;-51
2022/10/09 05:28:45;;;;;;;7.70;4.40;;;5.90;99.90;;;5.27;100.00;97932.00;5007211;28;20032;-48
2022/10/09 05:31:21;;;;;;;7.63;4.00;;;5.90;99.90;;;5.26;100.00;97932.03;5002148;28;20025;-48
2022/10/09 05:33:47;;;;;;;6.85;4.03;;;5.90;99.90;;;5.21;100.00;97913.75;5002186;28;20034;-49
2022/10/09 05:36:13;;;;;;;8.75;4.28;;;5.90;99.90;;;5.22;100.00;97936.41;4998774;28;20056;-48
2022/10/09 05:38:39;;;;;;;11.52;4.70;;;5.90;99.90;;;5.22;100.00;97925.94;5004700;28;20048;-49
2022/10/09 05:41:09;;;;;;;5.75;4.35;;;5.80;99.90;;;5.19;100.00;97932.94;5002235;28;20615;-49
2022/10/09 05:43:38;;;;;;;7.03;3.95;;;5.90;99.90;;;5.14;100.00;97930.38;5003769;28;20030;-48
2022/10/09 05:46:10;;;;;;;5.85;3.92;;;5.80;99.90;;;5.16;100.00;97934.69;5002004;28;20033;-49
2022/10/09 05:48:38;;;;;;;7.65;4.28;;;5.80;99.90;;;5.14;100.00;97931.22;4999200;28;20544;-48
2022/10/09 05:51:20;;;;;;;5.35;3.70;;;5.80;99.90;;;5.13;100.00;97926.91;5009480;28;20034;-50
2022/10/09 05:53:46;;;;;;;9.13;4.55;;;5.80;99.90;;;5.13;100.00;97933.84;5004847;28;20029;-51
2022/10/09 05:56:25;;;;;;;5.68;3.90;;;5.80;99.90;;;5.15;100.00;97935.59;5001629;28;20360;-48
2022/10/09 05:58:57;;;;;;;9.77;4.70;;;5.80;99.90;;;5.16;100.00;97936.44;5005232;28;20029;-48
2022/10/09 06:01:27;;;;;;;7.97;4.30;;;5.80;99.90;;;5.16;100.00;97928.59;5005690;28;20499;-49
2022/10/09 06:03:56;;;;;;;9.23;4.25;;;5.80;99.90;;;5.12;100.00;97924.28;5004844;28;20064;-49
2022/10/09 06:06:25;;;;;;;6.70;3.88;;;5.80;99.90;;;5.15;100.00;97927.75;5002811;28;20037;-49
2022/10/09 06:08:52;;;;;;;7.65;4.05;;;5.80;99.90;;;5.16;100.00;97928.59;5001999;28;20030;-50
2022/10/09 06:11:22;;;;;;;6.47;4.15;;;5.80;99.90;;;5.20;100.00;97932.94;5002453;28;20052;-49
2022/10/09 06:13:48;;;;;;;6.50;4.10;;;5.80;99.90;;;5.24;100.00;97920.69;5005081;28;20033;-50
2022/10/09 06:16:16;;;;;;;6.30;4.13;;;5.90;99.90;;;5.31;100.00;97927.63;5000720;28;21149;-48
2022/10/09 06:18:47;;;;;;;7.57;4.35;;;5.90;99.90;;;5.37;100.00;97922.38;4997435;28;20030;-48
2022/10/09 06:21:14;;;;;;;6.73;4.10;;;6.00;99.90;;;5.42;100.00;97927.53;5003602;28;20025;-52
2022/10/09 06:23:40;;;;;;;8.00;4.70;;;6.10;99.90;;;5.44;100.00;97921.44;5000934;28;20033;-48
2022/10/09 06:26:12;;;;;;;9.05;4.70;;;6.10;99.90;;;5.57;100.00;97931.81;5000649;28;20637;-47
2022/10/09 06:28:38;;;;;;;9.07;5.00;;;6.20;99.90;;;5.62;100.00;97937.88;4996278;28;20038;-50
2022/10/09 06:31:17;;;;;;;9.18;4.45;;;6.30;99.90;;;5.65;100.00;97924.72;5000024;28;20341;-49
2022/10/09 06:33:45;;;;;;;6.82;4.32;;;6.30;99.90;;;5.75;100.00;97947.34;5004473;28;20116;-49
2022/10/09 06:36:13;;;;;;;6.45;4.15;;;6.40;99.90;;;5.79;100.00;97937.69;5002389;28;20651;-50
2022/10/09 06:38:40;;;;;;;8.50;4.35;;;6.50;99.90;;;5.81;100.00;97938.56;5005409;28;20071;-48
2022/10/09 06:41:12;;;;;;;9.88;4.70;;;6.50;99.90;;;5.86;100.00;97936.75;4993719;28;20041;-51
2022/10/09 06:43:38;;;;;;;;;;;6.50;99.90;;;5.92;100.00;97942.81;5002939;28;20091;-47
2022/10/09 06:46:09;;;;;;;12.20;4.88;;;6.60;99.90;;;5.99;100.00;97941.03;4999111;28;19928;-49
2022/10/09 06:48:37;;;;;;;9.38;4.22;;;6.60;99.90;;;6.05;100.00;97940.97;4991161;28;20041;-48
2022/10/09 06:51:15;;;;;;;9.68;5.20;;;6.70;99.90;;;6.12;100.00;97936.56;5001793;28;20025;-49
2022/10/09 06:53:50;;;;;;;5.97;4.63;;;6.80;99.90;;;6.22;100.00;97938.16;4997020;28;20036;-51
2022/10/09 06:56:18;;;;;;;7.35;4.95;;;6.90;99.90;;;6.26;100.00;97934.66;4999039;28;20034;-48
2022/10/09 06:58:45;;;;;;;9.50;4.75;;;7.00;99.90;;;6.38;100.00;97946.72;5000091;28;20548;-51
2022/10/09 07:01:15;;;;;;;9.00;4.18;;;7.00;99.90;;;6.45;100.00;97945.75;4988452;28;20033;-49
2022/10/09 07:03:44;;;;;;;6.63;4.25;;;7.10;99.90;;;6.52;100.00;97945.72;4990304;28;20483;-50
2022/10/09 07:06:11;;;;;;;9.85;4.78;;;7.20;99.90;;;6.60;100.00;97949.94;5000291;28;20048;-50
2022/10/09 07:08:39;;;;;;;7.45;4.68;;;7.30;99.90;;;6.69;100.00;97946.34;4995797;28;20040;-50
2022/10/09 07:11:14;;;;;;;7.93;4.30;;;7.30;99.90;;;6.75;100.00;97953.25;4998025;28;20064;-49
2022/10/09 07:13:42;;;;;;;6.65;4.40;;;7.40;99.90;;;6.86;100.00;97944.38;5000465;28;20790;-48
2022/10/09 07:16:09;;;;;;;7.45;4.50;;;7.50;99.90;;;6.95;100.00;97953.03;4994228;28;20033;-49
2022/10/09 07:18:36;;;;;;;10.05;4.95;;;7.60;99.90;;;7.01;100.00;97952.94;5003053;28;20049;-44
2022/10/09 07:21:04;;;;;;;7.90;4.47;;;7.70;99.90;;;7.09;100.00;97940.59;5000393;28;20622;-48
2022/10/09 07:23:32;;;;;;;7.82;4.95;;;7.70;99.90;;;7.15;100.00;97948.34;5000401;28;20137;-49
2022/10/09 07:25:58;;;;;;;7.85;4.93;;;7.80;99.90;;;7.23;100.00;97953.47;5001599;28;20193;-50
2022/10/09 07:28:27;;;;;;;5.50;4.40;;;7.80;99.90;;;7.31;100.00;97956.88;5003736;28;20295;-50
2022/10/09 07:30:52;;;;;;;6.22;4.30;;;7.90;99.90;;;7.34;100.00;97946.34;5000489;28;20390;-51
2022/10/09 07:33:18;;;;;;;8.20;4.15;;;8.00;99.90;;;7.43;100.00;97953.22;5005007;28;20199;-49
2022/10/09 07:35:56;;;;;;;9.27;4.28;;;8.00;99.90;;;7.48;100.00;97951.34;5001288;28;20057;-50
2022/10/09 07:38:23;;;;;;;8.32;4.47;;;8.10;99.90;;;7.54;100.00;97945.16;5004627;28;20040;-51
2022/10/09 07:40:52;;;;;;;5.50;3.72;;;8.20;99.90;;;7.55;100.00;97941.63;4996838;28;20487;-51
2022/10/09 07:43:19;;;;;;;9.25;5.25;;;8.20;99.90;;;7.65;100.00;97949.31;5004213;28;20032;-52
2022/10/09 07:45:45;;;;;;;7.95;5.00;;;8.30;99.90;;;7.73;100.00;97953.59;4993216;28;20017;-49
2022/10/09 07:48:11;;;;;;;6.85;4.50;;;8.40;99.90;;;7.78;100.00;97938.63;4994539;28;20038;-49
2022/10/09 07:50:36;;;;;;;8.38;4.65;;;8.40;99.90;;;7.89;100.00;97949.81;4985897;28;20044;-53
2022/10/09 07:53:02;;;;;;;5.82;4.53;;;8.50;99.90;;;7.95;100.00;97948.81;5002296;28;20025;-51
2022/10/09 07:55:28;;;;;;;8.00;5.13;;;8.50;99.90;;;7.98;100.00;97943.53;5003518;28;20266;-49
2022/10/09 07:57:53;;;;;;;9.27;4.95;;;8.60;99.90;;;8.08;100.00;97952.97;5000826;28;20087;-51
2022/10/09 08:00:19;;;;;;;9.95;4.50;;;8.70;99.90;;;8.13;100.00;97945.88;5006004;28;20036;-52
2022/10/09 08:02:45;;;;;;;6.80;4.47;;;8.70;99.90;;;8.22;100.00;97945.72;5001348;28;20045;-52
2022/10/09 08:05:10;;;;;;;7.03;4.50;;;8.80;99.90;;;8.32;100.00;97935.88;5002686;28;20040;-48
2022/10/09 08:07:36;;;;;;;12.00;4.75;;;8.90;99.90;;;8.32;100.00;97933.25;5006650;28;20469;-49
2022/10/09 08:10:04;;;;;;;10.23;4.80;;;9.00;99.90;;;8.43;100.00;97940.09;5005286;28;20120;-52
2022/10/09 08:12:30;;;;;;;9.43;5.05;;;9.00;99.90;;;8.49;100.00;97940.84;5023002;28;20040;-48
2022/10/09 08:14:55;;;;;;;10.05;5.28;;;9.10;99.90;;;8.54;100.00;97946.00;5001972;28;20025;-50
2022/10/09 08:17:21;;;;;;;10.93;4.38;;;9.10;99.90;;;8.60;100.00;97930.97;5005614;28;20389;-48
2022/10/09 08:19:47;;;;;;;7.72;4.57;;;9.20;99.90;;;8.73;100.00;97950.00;5004649;28;20399;-50
2022/10/09 08:22:12;;;;;;;9.65;4.85;;;9.30;99.90;;;8.84;100.00;97944.50;5006884;28;20027;-49
2022/10/09 08:24:38;;;;;;;7.57;4.30;;;9.40;99.90;;;8.90;100.00;97938.25;5005491;28;20791;-52
2022/10/09 08:27:05;;;;;;;7.22;4.03;;;9.40;99.90;;;9.02;100.00;97939.75;5008722;28;20049;-47
2022/10/09 08:29:31;;;;;;;7.93;4.05;;;9.60;99.90;;;9.00;100.00;97913.47;5005192;28;20333;-49
2022/10/09 08:31:56;;;;;;;8.30;3.90;;;9.70;99.90;;;9.22;100.00;97928.78;5005723;28;20406;-49
2022/10/09 08:34:22;;;;;;;7.45;3.88;;;9.70;99.90;;;9.39;100.00;97931.03;5008994;28;20215;-49
2022/10/09 08:36:48;;;;;;;9.50;4.10;;;9.90;99.90;;;9.47;100.00;97927.28;5001210;28;20155;-48
2022/10/09 08:39:14;;;;;;;4.75;3.67;;;10.00;99.90;;;9.58;100.00;97927.03;5007175;28;20065;-48
2022/10/09 08:41:56;;;;;;;6.57;4.07;;;10.10;99.90;;;9.72;100.00;97929.31;5003369;28;20128;-47
2022/10/09 08:44:29;;;;;;;5.05;3.53;;;10.20;99.90;;;9.80;100.00;97934.38;4998854;28;20624;-50
2022/10/09 08:47:29;;;;;;;11.18;3.83;;;10.40;99.90;;;9.94;100.00;97937.53;5001647;28;20092;-47
2022/10/09 08:50:18;;;;;;;7.57;3.25;;;10.40;99.90;;;9.98;100.00;97927.78;5006591;28;20432;-48
2022/10/09 08:53:35;;;;;;;6.63;3.83;;;10.50;99.90;;;10.08;100.00;97932.78;4997590;28;20044;-49
2022/10/09 08:56:04;;;;;;;5.82;3.10;;;10.60;99.90;;;10.17;100.00;97928.19;5003874;28;20052;-49
2022/10/09 08:58:35;;;;;;;7.07;3.58;;;10.70;99.90;;;10.32;100.00;97930.44;5008966;28;20037;-50
2022/10/09 09:01:25;;;;;;;5.00;3.28;;;10.80;99.90;;;10.44;100.00;97935.34;5001710;28;20083;-49
2022/10/09 09:04:26;;;;;;;5.25;3.08;;;11.00;99.90;;;10.60;100.00;97927.00;5004256;28;20080;-51
2022/10/09 09:07:07;;;;;;;6.13;3.42;;;11.10;99.90;;;10.69;100.00;97922.34;5005824;28;22082;-50
2022/10/09 09:09:52;;;;;;;9.05;3.45;;;11.20;99.90;;;10.80;100.00;97921.16;4994917;28;20137;-50
2022/10/09 09:12:26;;;;;;;4.53;2.70;;;11.30;99.90;;;10.91;100.00;97924.38;5013196;28;20498;-49
2022/10/09 09:15:24;;;;;;;5.32;3.00;;;11.40;99.90;;;11.05;100.00;97919.53;4994181;28;20056;-51
2022/10/09 09:18:11;;;;;;;10.07;2.55;;;11.50;99.90;;;11.16;100.00;97915.66;5005248;28;20049;-50
2022/10/09 09:21:33;;;;;;;5.95;3.38;;;11.60;99.90;;;11.25;100.00;97911.00;5030396;22;21909;-51
2022/10/09 09:24:04;;;;;;;6.18;2.95;;;11.70;99.90;;;11.37;100.00;97914.16;4962112;28;20100;-53
2022/10/09 09:26:29;;;;;;;5.78;3.05;;;11.80;99.90;;;11.50;100.00;97912.81;4987207;28;20471;-54
2022/10/09 09:29:01;;;;;;;4.25;2.60;;;11.90;99.90;;;11.59;100.00;97907.25;4979663;28;20134;-53
2022/10/09 09:31:35;;;;;;;6.25;2.65;;;12.10;99.90;;;11.66;100.00;97913.19;4969664;28;20029;-53
2022/10/09 09:34:11;;;;;;;6.43;2.70;;;12.10;99.90;;;11.77;100.00;97910.19;4964370;28;20042;-53
2022/10/09 09:36:48;;;;;;;4.57;2.50;;;12.20;99.90;;;11.82;100.00;97906.47;4987167;28;20022;-54
2022/10/09 09:39:13;;;;;;;5.03;2.75;;;12.30;99.90;;;11.92;100.00;97909.72;4962660;28;20072;-51
2022/10/09 09:41:42;;;;;;;5.53;2.78;;;12.30;99.90;;;11.97;100.00;97897.22;4972068;28;20483;-53
2022/10/09 09:44:13;;;;;;;6.50;2.53;;;12.40;99.90;;;12.00;100.00;97897.06;4984711;28;20036;-50
2022/10/09 09:46:42;;;;;;;5.45;2.65;;;12.50;99.90;;;12.04;100.00;97879.31;4968073;28;20044;-52
2022/10/09 09:49:37;;;;;;;3.78;2.28;;;12.50;99.90;;;12.15;100.00;97887.75;4978671;28;20034;-52
2022/10/09 09:52:08;;;;;;;4.60;2.20;;;12.60;99.90;;;12.21;100.00;97882.25;4941118;28;20053;-47
2022/10/09 09:54:33;;;;;;;5.30;2.28;;;12.70;99.90;;;12.28;100.00;97879.41;4979220;28;20061;-51
2022/10/09 09:57:00;;;;;;;3.65;2.05;;;12.70;99.90;;;12.38;97.45;97868.44;4983391;28;20026;-47
2022/10/09 09:59:42;;;;;;;4.78;1.70;;;12.80;99.90;;;12.48;88.92;97854.84;4965981;28;20042;-47
2022/10/09 10:02:18;;;;;;;4.45;1.77;;;13.00;99.90;;;12.68;95.73;97873.47;4965073;28;20033;-51
2022/10/09 10:04:58;;;;;;;3.58;2.00;;;13.10;99.90;;;12.74;95.68;97864.44;4964786;28;20041;-49
2022/10/09 10:07:44;;;;;;;3.00;1.90;;;13.20;99.90;;;12.76;90.40;97862.63;4969511;28;20739;-47
2022/10/09 10:10:25;;;;;;;4.95;1.77;;;13.20;99.90;;;12.80;89.79;97867.72;4960693;28;20077;-47
2022/10/09 10:12:50;;;;;;;5.95;2.13;;;13.30;99.90;;;12.86;90.84;97856.03;4960069;28;20605;-49
2022/10/09 10:15:24;;;;;;;3.10;1.85;;;13.30;99.90;;;12.91;91.55;97853.22;4972892;28;20033;-48
2022/10/09 10:17:57;;;;;;;4.50;1.98;;;13.40;99.90;;;12.93;92.91;97859.31;4961105;28;20463;-51
2022/10/09 10:20:23;;;;;;;6.38;2.05;;;13.40;99.90;;;12.92;91.42;97849.63;4986984;28;20044;-47
2022/10/09 10:22:55;;;;;;;4.35;1.90;;;13.40;99.90;;;12.97;88.53;97851.19;4962597;28;20034;-50
2022/10/09 10:25:27;;;;;;;5.88;1.70;;;13.40;99.90;;;13.02;88.44;97842.19;4973487;28;20423;-50
2022/10/09 10:28:03;;;;;;;3.58;1.55;;;13.50;99.90;;;13.05;88.62;97837.66;4955117;28;20048;-53
2022/10/09 10:30:30;;;;;;;3.22;1.60;;;13.50;99.90;;;13.14;84.52;97831.97;4953250;28;20041;-54
2022/10/09 10:33:04;;;;;;;5.03;1.88;;;13.60;99.90;;;13.23;85.30;97830.75;4957750;28;20056;-52
2022/10/09 10:35:35;;;;;;;6.55;2.20;;;13.70;99.90;;;13.34;81.79;97831.19;4924842;28;20588;-52
2022/10/09 10:38:18;;;;;;;7.43;1.73;;;13.70;99.90;;;13.36;79.66;97839.09;4961040;28;20111;-51